createdAt,value
2022-11-13T02:36:57.735Z,12.70
2022-11-13T02:39:27.266Z,7.00
2022-11-13T02:41:56.812Z,6.90
2022-11-13T02:44:26.293Z,6.90
2022-11-13T02:46:55.994Z,6.80
2022-11-13T02:49:25.601Z,6.80
2022-11-13T02:51:57.755Z,6.80
2022-11-13T02:54:27.272Z,6.80
2022-11-13T02:56:56.829Z,6.80
2022-11-13T02:59:26.325Z,6.80
2022-11-13T03:01:55.944Z,6.80
2022-11-13T03:04:25.683Z,6.70
2022-11-13T03:09:25.852Z,6.60
2022-11-13T03:11:55.479Z,6.70
2022-11-13T03:14:25.324Z,6.60
2022-11-13T03:16:55.152Z,6.60
2022-11-13T03:19:25.491Z,6.60
2022-11-13T03:21:55.201Z,6.60
2022-11-13T03:24:28.282Z,6.80
2022-11-13T03:26:57.927Z,6.80
2022-11-13T03:29:27.573Z,6.60
2022-11-13T03:31:57.190Z,6.60
2022-11-13T03:34:26.889Z,6.70
2022-11-13T03:36:56.510Z,6.60
2022-11-13T03:39:29.038Z,6.60
2022-11-13T03:41:58.623Z,6.60
2022-11-13T03:44:28.207Z,6.60
2022-11-13T03:46:57.816Z,6.50
2022-11-13T03:49:27.488Z,6.60
2022-11-13T03:51:57.078Z,6.50
2022-11-13T03:54:29.292Z,6.60
2022-11-13T03:56:59.014Z,6.50
2022-11-13T03:59:28.611Z,6.50
2022-11-13T04:01:58.306Z,6.50
2022-11-13T04:04:27.929Z,6.50
2022-11-13T04:06:57.574Z,6.50
2022-11-13T04:09:29.818Z,6.50
2022-11-13T04:11:59.420Z,6.50
2022-11-13T04:14:29.052Z,6.50
2022-11-13T04:16:58.741Z,6.40
2022-11-13T04:19:28.509Z,7.70
2022-11-13T04:21:58.270Z,6.80
2022-11-13T04:24:30.833Z,6.40
2022-11-13T04:27:00.620Z,6.40
2022-11-13T04:29:31.158Z,6.80
2022-11-13T04:32:00.776Z,6.40
2022-11-13T04:34:30.560Z,6.40
2022-11-13T04:37:00.889Z,6.40
2022-11-13T04:39:34.433Z,6.40
2022-11-13T04:42:16.398Z,6.40
2022-11-13T04:44:46.249Z,6.40
2022-11-13T04:47:15.930Z,6.40
2022-11-13T04:49:46.176Z,6.30
2022-11-13T04:52:16.297Z,6.30
2022-11-13T04:54:49.114Z,6.40
2022-11-13T04:57:18.990Z,6.30
2022-11-13T04:59:48.696Z,6.30
2022-11-13T05:02:19.039Z,6.30
2022-11-13T05:04:59.261Z,6.30
2022-11-13T05:07:31.893Z,6.20
2022-11-13T05:10:04.456Z,6.20
2022-11-13T05:12:34.100Z,6.20
2022-11-13T05:15:04.623Z,6.40
2022-11-13T05:17:34.274Z,6.20
2022-11-13T05:20:03.915Z,6.10
2022-11-13T05:22:33.482Z,6.60
2022-11-13T05:25:06.091Z,6.10
2022-11-13T05:27:35.686Z,6.10
2022-11-13T05:30:05.567Z,6.10
2022-11-13T05:32:35.276Z,6.10
2022-11-13T05:35:04.902Z,6.10
2022-11-13T05:37:34.527Z,6.70
2022-11-13T05:40:07.176Z,6.10
2022-11-13T05:42:37.217Z,6.10
2022-11-13T05:45:08.210Z,6.10
2022-11-13T05:47:37.967Z,6.10
2022-11-13T05:50:08.224Z,6.10
2022-11-13T05:52:37.922Z,6.10
2022-11-13T05:55:11.558Z,6.10
2022-11-13T05:57:41.466Z,6.10
2022-11-13T06:00:13.087Z,6.10
2022-11-13T06:02:42.750Z,6.10
2022-11-13T06:05:14.105Z,6.10
2022-11-13T06:07:43.818Z,6.10
2022-11-13T06:10:16.316Z,6.20
2022-11-13T06:12:47.880Z,6.10
2022-11-13T06:15:20.327Z,6.00
2022-11-13T06:17:49.987Z,6.00
2022-11-13T06:20:19.872Z,6.00
2022-11-13T06:22:49.420Z,6.00
2022-11-13T06:25:22.239Z,6.00
2022-11-13T06:27:52.111Z,6.00
2022-11-13T06:30:22.150Z,6.00
2022-11-13T06:32:55.665Z,6.00
2022-11-13T06:35:25.381Z,6.00
2022-11-13T06:37:57.073Z,7.10
2022-11-13T06:40:29.485Z,6.10
2022-11-13T06:42:59.310Z,6.00
2022-11-13T06:45:29.472Z,6.00
2022-11-13T06:47:59.418Z,6.00
2022-11-13T06:50:29.233Z,6.20
2022-11-13T06:52:59.049Z,6.00
2022-11-13T06:55:31.536Z,6.10
2022-11-13T06:58:02.291Z,6.00
2022-11-13T07:00:36.401Z,6.00
2022-11-13T07:03:07.254Z,6.10
2022-11-13T07:05:38.954Z,7.30
2022-11-13T07:08:08.634Z,6.10
2022-11-13T07:10:41.024Z,6.50
2022-11-13T07:13:10.958Z,6.30
2022-11-13T07:15:41.477Z,6.50
2022-11-13T07:18:11.207Z,5.90
2022-11-13T07:20:40.901Z,6.30
2022-11-13T07:23:10.567Z,6.00
2022-11-13T07:25:43.019Z,6.00
2022-11-13T07:28:12.748Z,6.00
2022-11-13T07:30:42.542Z,6.00
2022-11-13T07:33:12.170Z,6.00
2022-11-13T07:35:41.920Z,6.70
2022-11-13T07:38:11.707Z,5.90
2022-11-13T07:40:44.142Z,5.90
2022-11-13T07:43:13.864Z,6.40
2022-11-13T07:45:43.543Z,6.00
2022-11-13T07:48:13.605Z,5.90
2022-11-13T07:50:43.333Z,6.00
2022-11-13T07:53:13.153Z,6.50
2022-11-13T07:55:45.541Z,5.90
2022-11-13T07:58:15.211Z,5.90
2022-11-13T08:00:44.898Z,6.10
2022-11-13T08:03:15.761Z,6.00
2022-11-13T08:05:46.579Z,6.00
2022-11-13T08:08:16.836Z,6.00
2022-11-13T08:10:49.003Z,6.00
2022-11-13T08:13:18.802Z,6.10
2022-11-13T08:15:48.425Z,6.10
2022-11-13T08:18:18.004Z,6.10
2022-11-13T08:20:47.637Z,6.10
2022-11-13T08:23:17.213Z,6.20
2022-11-13T08:25:49.576Z,6.30
2022-11-13T08:28:19.151Z,6.40
2022-11-13T08:30:49.173Z,6.50
2022-11-13T08:33:18.918Z,6.50
2022-11-13T08:35:55.089Z,6.50
2022-11-13T08:38:24.931Z,6.50
2022-11-13T08:41:00.446Z,6.50
2022-11-13T08:43:31.768Z,6.60
2022-11-13T08:46:01.391Z,6.60
2022-11-13T08:48:31.314Z,6.60
2022-11-13T08:51:01.324Z,6.60
2022-11-13T08:53:31.881Z,6.60
2022-11-13T08:56:05.908Z,6.70
2022-11-13T08:58:35.597Z,6.70
2022-11-13T09:01:05.405Z,6.70
2022-11-13T09:03:36.320Z,6.70
2022-11-13T09:06:07.676Z,6.80
2022-11-13T09:08:37.343Z,6.80
2022-11-13T09:11:09.895Z,6.90
2022-11-13T09:13:56.923Z,6.90
2022-11-13T09:16:27.949Z,7.00
2022-11-13T09:18:57.545Z,7.20
2022-11-13T09:21:27.124Z,7.10
2022-11-13T09:23:58.751Z,7.20
2022-11-13T09:26:30.971Z,7.20
2022-11-13T09:29:00.710Z,7.30
2022-11-13T09:31:30.372Z,7.30
2022-11-13T09:34:04.958Z,7.30
2022-11-13T09:36:34.784Z,7.40
2022-11-13T09:39:04.640Z,7.40
2022-11-13T09:41:39.947Z,7.50
2022-11-13T09:44:10.148Z,7.50
2022-11-13T09:46:41.530Z,7.60
2022-11-13T09:49:16.666Z,7.60
2022-11-13T09:51:49.852Z,7.70
2022-11-13T09:54:20.350Z,7.80
2022-11-13T09:56:55.625Z,7.80
2022-11-13T09:59:29.704Z,7.80
2022-11-13T10:02:03.070Z,7.80
2022-11-13T10:04:37.514Z,7.80
2022-11-13T10:07:13.540Z,7.70
2022-11-13T10:09:49.446Z,7.80
2022-11-13T10:12:21.710Z,7.80
2022-11-13T10:14:52.929Z,7.90
2022-11-13T10:17:25.810Z,8.00
2022-11-13T10:19:57.752Z,8.10
2022-11-13T10:22:33.827Z,8.20
2022-11-13T10:25:07.576Z,8.30
2022-11-13T10:27:40.154Z,8.40
2022-11-13T10:30:15.975Z,8.60
2022-11-13T10:32:46.094Z,8.70
2022-11-13T10:35:36.477Z,8.80
2022-11-13T10:38:08.773Z,9.00
2022-11-13T10:40:42.778Z,9.20
2022-11-13T10:43:18.024Z,9.30
2022-11-13T10:45:56.533Z,9.50
2022-11-13T10:51:24.232Z,9.80
2022-11-13T10:53:54.357Z,9.90
2022-11-13T10:56:25.483Z,10.10
2022-11-13T10:59:12.769Z,10.20
2022-11-13T11:01:42.601Z,10.30
2022-11-13T11:04:15.371Z,10.40
2022-11-13T11:09:35.137Z,10.60
2022-11-13T11:12:27.141Z,10.60
2022-11-13T11:15:06.048Z,10.70
2022-11-13T11:17:38.928Z,10.70
2022-11-13T11:20:10.092Z,10.80
2022-11-13T11:22:40.650Z,10.80
2022-11-13T11:25:15.124Z,10.80
2022-11-13T11:27:47.655Z,10.90
2022-11-13T11:30:22.552Z,10.90
2022-11-13T11:32:54.828Z,11.00
2022-11-13T11:35:25.209Z,11.00
2022-11-13T11:37:58.278Z,11.00
2022-11-13T11:40:30.657Z,11.20
2022-11-13T11:43:04.602Z,11.20
2022-11-13T11:45:38.659Z,11.20
2022-11-13T11:48:12.797Z,11.30
2022-11-13T11:50:46.406Z,11.40
2022-11-13T11:53:17.399Z,11.50
2022-11-13T11:55:53.691Z,11.50
2022-11-13T11:58:28.383Z,11.60
2022-11-13T12:01:03.816Z,11.70
2022-11-13T12:03:52.507Z,11.80
2022-11-13T12:06:26.624Z,11.80
2022-11-13T12:08:59.766Z,11.80
2022-11-13T12:11:32.325Z,11.70
2022-11-13T12:14:06.184Z,11.70
2022-11-13T12:16:43.726Z,11.60
2022-11-13T12:19:16.243Z,11.60
2022-11-13T12:21:51.392Z,11.50
2022-11-13T12:24:31.590Z,11.40
2022-11-13T12:27:07.249Z,11.40
2022-11-13T12:29:43.652Z,11.40
2022-11-13T12:32:21.963Z,11.30
2022-11-13T12:34:54.363Z,11.30
2022-11-13T12:37:27.054Z,11.30
2022-11-13T12:39:58.881Z,11.30
2022-11-13T12:42:34.314Z,11.30
2022-11-13T12:45:10.143Z,11.20
2022-11-13T12:47:43.266Z,11.20
2022-11-13T12:50:30.264Z,11.20
2022-11-13T12:53:02.529Z,11.20
2022-11-13T12:55:33.058Z,11.20
2022-11-13T12:58:08.034Z,11.20
2022-11-13T13:00:38.272Z,11.20
2022-11-13T13:03:21.534Z,11.20
2022-11-13T13:06:09.261Z,11.20
2022-11-13T13:08:47.999Z,11.30
2022-11-13T13:11:20.498Z,11.40
2022-11-13T13:13:53.368Z,11.40
2022-11-13T13:16:24.881Z,11.50
2022-11-13T13:19:08.290Z,11.50
2022-11-13T13:21:45.124Z,11.60
2022-11-13T13:24:29.952Z,11.60
2022-11-13T13:26:59.980Z,11.60
2022-11-13T13:29:30.078Z,11.70
2022-11-13T13:32:08.630Z,11.70
2022-11-13T13:34:49.060Z,11.80
2022-11-13T13:37:29.120Z,11.80
2022-11-13T13:40:03.912Z,11.80
2022-11-13T13:42:44.142Z,11.80
2022-11-13T13:45:28.683Z,11.80
2022-11-13T13:47:59.630Z,11.80
2022-11-13T13:50:33.352Z,11.90
2022-11-13T13:53:03.231Z,11.90
2022-11-13T13:55:34.912Z,11.90
2022-11-13T13:58:05.932Z,11.90
2022-11-13T14:00:44.609Z,12.00
2022-11-13T14:03:25.191Z,12.00
2022-11-13T14:06:02.664Z,12.00
2022-11-13T14:08:33.567Z,12.10
2022-11-13T14:11:06.081Z,12.10
2022-11-13T14:13:37.721Z,12.10
2022-11-13T14:16:08.591Z,12.10
2022-11-13T14:18:38.394Z,12.10
2022-11-13T14:21:16.119Z,12.00
2022-11-13T14:23:46.912Z,12.00
2022-11-13T14:26:16.857Z,12.00
2022-11-13T14:28:53.123Z,12.00
2022-11-13T14:31:29.896Z,12.00
2022-11-13T14:34:00.043Z,12.00
2022-11-13T14:36:33.412Z,12.00
2022-11-13T14:39:03.476Z,12.00
2022-11-13T14:41:36.110Z,12.10
2022-11-13T14:44:05.675Z,12.00
2022-11-13T14:46:37.677Z,12.00
2022-11-13T14:49:07.420Z,12.00
2022-11-13T14:51:39.619Z,12.00
2022-11-13T14:54:10.129Z,12.00
2022-11-13T14:56:41.165Z,11.90
2022-11-13T14:59:14.436Z,11.90
2022-11-13T15:01:56.366Z,11.90
2022-11-13T15:04:26.209Z,11.90
2022-11-13T15:07:00.297Z,11.80
2022-11-13T15:09:30.200Z,11.80
2022-11-13T15:11:59.767Z,11.80
2022-11-13T15:14:29.382Z,11.80
2022-11-13T15:16:59.020Z,11.80
2022-11-13T15:19:34.435Z,11.70
2022-11-13T15:22:25.945Z,11.00
2022-11-13T15:24:56.312Z,11.50
2022-11-13T15:27:26.179Z,11.50
2022-11-13T15:29:55.856Z,11.40
2022-11-13T15:32:28.998Z,11.40
2022-11-13T15:34:58.526Z,11.30
2022-11-13T15:37:30.700Z,11.20
2022-11-13T15:40:00.524Z,11.20
2022-11-13T15:42:32.023Z,11.20
2022-11-13T15:45:01.824Z,11.10
2022-11-13T15:47:32.478Z,11.10
2022-11-13T15:50:13.478Z,11.10
2022-11-13T15:52:48.018Z,11.00
2022-11-13T15:55:21.842Z,11.00
2022-11-13T15:57:51.678Z,11.00
2022-11-13T16:00:25.326Z,10.90
2022-11-13T16:02:56.208Z,10.90
2022-11-13T16:05:26.711Z,10.80
2022-11-13T16:07:58.879Z,10.80
2022-11-13T16:10:28.536Z,10.70
2022-11-13T16:12:58.181Z,10.70
2022-11-13T16:15:27.764Z,10.60
2022-11-13T16:17:58.312Z,10.60
2022-11-13T16:20:27.885Z,10.60
2022-11-13T16:23:00.042Z,10.50
2022-11-13T16:25:29.610Z,10.40
2022-11-13T16:27:59.580Z,10.30
2022-11-13T16:30:31.442Z,10.20
2022-11-13T16:33:05.809Z,10.20
2022-11-13T16:35:35.341Z,10.10
2022-11-13T16:38:12.791Z,10.00
2022-11-13T16:40:43.356Z,10.00
2022-11-13T16:43:13.161Z,10.00
2022-11-13T16:45:42.774Z,9.90
2022-11-13T16:48:15.007Z,9.90
2022-11-13T16:50:45.372Z,9.80
2022-11-13T16:53:17.572Z,9.80
2022-11-13T16:55:47.145Z,9.70
2022-11-13T16:58:16.938Z,9.70
2022-11-13T17:00:46.488Z,9.60
2022-11-13T17:03:16.063Z,9.60
2022-11-13T17:05:45.717Z,9.60
2022-11-13T17:08:17.893Z,9.50
2022-11-13T17:10:47.547Z,9.50
2022-11-13T17:13:17.137Z,9.50
2022-11-13T17:15:46.700Z,9.50
2022-11-13T17:18:16.531Z,9.50
2022-11-13T17:20:46.153Z,9.50
2022-11-13T17:23:19.123Z,9.40
2022-11-13T17:25:48.799Z,9.40
2022-11-13T17:28:18.795Z,9.30
2022-11-13T17:30:48.351Z,9.30
2022-11-13T17:33:18.242Z,9.20
2022-11-13T17:35:47.866Z,9.30
2022-11-13T17:38:20.170Z,9.20
2022-11-13T17:40:49.647Z,9.20
2022-11-13T17:43:19.138Z,9.10
2022-11-13T17:45:51.406Z,9.10
2022-11-13T17:48:20.966Z,9.10
2022-11-13T17:50:58.471Z,9.10
2022-11-13T17:53:31.273Z,9.10
2022-11-13T17:56:02.064Z,9.00
2022-11-13T17:58:31.805Z,9.00
2022-11-13T18:01:05.978Z,9.00
2022-11-13T18:03:35.805Z,9.00
2022-11-13T18:06:09.143Z,8.90
2022-11-13T18:08:43.595Z,8.90
2022-11-13T18:11:15.441Z,8.90
2022-11-13T18:13:45.515Z,8.90
2022-11-13T18:16:16.640Z,8.90
2022-11-13T18:18:46.128Z,8.90
2022-11-13T18:21:22.884Z,8.90
2022-11-13T18:23:58.109Z,8.80
2022-11-13T18:26:28.057Z,8.80
2022-11-13T18:28:57.757Z,8.80
2022-11-13T18:31:27.948Z,8.80
2022-11-13T18:33:57.747Z,8.80
2022-11-13T18:36:27.230Z,8.80
2022-11-13T18:38:59.420Z,8.80
2022-11-13T18:41:28.898Z,8.80
2022-11-13T18:43:58.393Z,8.80
2022-11-13T18:46:27.878Z,8.80
2022-11-13T18:48:59.260Z,8.70
2022-11-13T18:51:30.325Z,8.70
2022-11-13T18:54:06.847Z,8.70
2022-11-13T18:56:40.018Z,8.70
2022-11-13T18:59:09.911Z,8.60
2022-11-13T19:01:40.140Z,8.60
2022-11-13T19:04:27.466Z,8.60
2022-11-13T19:06:57.373Z,8.60
2022-11-13T19:09:29.582Z,8.50
2022-11-13T19:11:59.040Z,8.50
2022-11-13T19:14:28.689Z,8.50
2022-11-13T19:16:58.163Z,8.50
2022-11-13T19:19:27.638Z,8.60
2022-11-13T19:21:57.128Z,8.50
2022-11-13T19:24:29.249Z,8.50
2022-11-13T19:26:58.781Z,8.50
2022-11-13T19:29:28.264Z,8.50
2022-11-13T19:31:57.755Z,8.50
2022-11-13T19:34:27.328Z,8.40
2022-11-13T19:36:56.758Z,8.40
2022-11-13T19:39:28.966Z,8.40
2022-11-13T19:41:58.429Z,8.30
2022-11-13T19:44:28.068Z,8.30
2022-11-13T19:46:57.563Z,8.40
2022-11-13T19:49:27.098Z,8.30
2022-11-13T19:51:56.773Z,8.50
2022-11-13T19:54:28.833Z,8.30
2022-11-13T19:56:58.323Z,8.30
2022-11-13T19:59:27.799Z,8.30
2022-11-13T20:01:57.337Z,8.20
2022-11-13T20:04:26.850Z,8.30
2022-11-13T20:06:56.379Z,8.30
2022-11-13T20:09:25.916Z,8.20
2022-11-13T20:11:58.104Z,8.20
2022-11-13T20:14:27.583Z,8.20
2022-11-13T20:16:57.068Z,8.10
2022-11-13T20:19:26.552Z,8.20
2022-11-13T20:21:56.379Z,8.10
2022-11-13T20:24:25.867Z,8.20
2022-11-13T20:26:57.933Z,8.20
2022-11-13T20:29:27.456Z,8.20
2022-11-13T20:31:56.901Z,8.20
2022-11-13T20:34:26.405Z,8.10
2022-11-13T20:36:55.956Z,8.10
2022-11-13T20:39:25.443Z,8.10
2022-11-13T20:41:54.941Z,8.10
2022-11-13T20:44:27.043Z,8.10
2022-11-13T20:46:56.511Z,8.10
2022-11-13T20:49:26.357Z,8.10
2022-11-13T20:51:57.292Z,8.10
2022-11-13T20:54:27.486Z,8.10
2022-11-13T20:56:56.993Z,8.10
2022-11-13T20:59:29.089Z,8.10
2022-11-13T21:01:58.610Z,8.10
2022-11-13T21:04:28.097Z,8.10
2022-11-13T21:06:57.565Z,8.10
2022-11-13T21:09:27.107Z,8.10
2022-11-13T21:11:56.587Z,8.10
2022-11-13T21:14:26.052Z,8.10
2022-11-13T21:16:58.105Z,8.10
2022-11-13T21:19:27.604Z,8.10
2022-11-13T21:21:57.063Z,8.10
2022-11-13T21:24:26.644Z,8.10
2022-11-13T21:26:56.089Z,8.80
2022-11-13T21:29:25.611Z,8.10
2022-11-13T21:31:58.000Z,8.10
2022-11-13T21:34:27.528Z,9.30
2022-11-13T21:36:57.506Z,8.10
2022-11-13T21:39:27.221Z,8.00
2022-11-13T21:41:56.919Z,8.00
2022-11-13T21:44:26.599Z,8.00
2022-11-13T21:46:58.763Z,8.00
2022-11-13T21:49:28.460Z,8.00
2022-11-13T21:51:58.158Z,8.00
2022-11-13T21:54:27.785Z,8.00
2022-11-13T21:56:57.374Z,8.00
2022-11-13T21:59:26.994Z,8.10
2022-11-13T22:01:59.201Z,8.00
2022-11-13T22:04:29.115Z,8.10
2022-11-13T22:06:58.757Z,8.00
2022-11-13T22:09:28.685Z,8.00
2022-11-13T22:11:58.324Z,8.00
2022-11-13T22:14:27.823Z,8.00
2022-11-13T22:17:00.126Z,8.00
2022-11-13T22:19:34.718Z,8.00
2022-11-13T22:22:05.559Z,8.00
2022-11-13T22:24:37.045Z,8.00
2022-11-13T22:27:06.670Z,8.00
2022-11-13T22:29:36.305Z,8.00
2022-11-13T22:32:08.612Z,8.00
2022-11-13T22:34:38.168Z,8.00
2022-11-13T22:37:07.740Z,8.00
2022-11-13T22:39:37.400Z,7.90
2022-11-13T22:42:07.184Z,7.90
2022-11-13T22:44:54.958Z,7.90
2022-11-13T22:47:28.031Z,7.90
2022-11-13T22:49:58.435Z,7.90
2022-11-13T22:52:27.985Z,7.90
2022-11-13T22:54:57.597Z,7.90
2022-11-13T22:57:27.177Z,7.90
2022-11-13T22:59:56.697Z,7.90
2022-11-13T23:02:28.890Z,7.90
2022-11-13T23:04:58.527Z,7.90
2022-11-13T23:07:28.348Z,7.90
2022-11-13T23:09:58.168Z,7.90
2022-11-13T23:12:29.301Z,7.80
2022-11-13T23:14:58.905Z,7.80
2022-11-13T23:17:31.041Z,7.80
2022-11-13T23:20:00.709Z,7.80
2022-11-13T23:22:30.306Z,7.80
2022-11-13T23:24:59.948Z,7.80
2022-11-13T23:27:30.758Z,7.90
2022-11-13T23:30:00.533Z,7.80
2022-11-13T23:32:32.870Z,7.80
2022-11-13T23:35:02.829Z,7.80
2022-11-13T23:37:32.439Z,7.90
2022-11-13T23:40:02.103Z,7.90
2022-11-13T23:42:53.531Z,7.90
2022-11-13T23:45:21.485Z,7.90
2022-11-13T23:47:53.931Z,7.90
2022-11-13T23:50:23.525Z,7.90
2022-11-13T23:52:53.124Z,7.90
2022-11-13T23:55:23.706Z,7.90
2022-11-13T23:57:58.538Z,7.80
